Latest Weather Observations for Sheffield

IDT60801

Issued at 5:05 pm EDT Saturday 29 November 2014 (issued every 30 minutes, with the page automatically refreshed every 10 minutes)

About weather observations | Map of weather stations | Latest weather observations for TAS | Other Formats
Station Details ID: 091291 Name: SHEFFIELD SCHOOL FARM Lat: -41.39 Lon: 146.32 Height: 294.2 m
Data from the previous 72 hours. | See also: Recent months at Sheffield
Date/Time
EDT
Temp
°C
App
Temp
°C
Dew
Point
Rel
Hum
%
Delta-T
°C
Wind Press
QNH
hPa
Press
MSL
hPa
Rain
since 9 am
mm
Dir
 
Spd
km/h
Gust
km/h
Spd
kts
Gust
kts
29/05:00pm 18.3 14.3 4.8 41 6.6 NNW 15 22 8 12 1016.1 1015.9 0.0
29/04:30pm 19.1 15.5 4.8 39 7.0 N 13 20 7 11 1015.9 1015.7 0.0
29/04:00pm 18.9 14.2 5.0 40 6.8 N 19 24 10 13 1016.0 1015.8 0.0
29/03:30pm 19.3 14.2 6.1 42 6.6 NNW 22 30 12 16 1015.9 1015.7 0.0
29/03:00pm 20.3 17.2 8.9 48 6.1 N 15 28 8 15 1016.0 1015.8 0.0
29/02:30pm 20.1 16.3 9.7 51 5.6 NNW 20 28 11 15 1016.0 1015.8 0.0
29/02:00pm 20.2 17.0 10.0 52 5.6 N 17 24 9 13 1016.3 1016.2 0.0
29/01:30pm 20.4 18.0 11.3 56 5.1 NNW 15 24 8 13 1016.5 1016.4 0.0
29/01:00pm 20.5 19.0 8.5 46 6.4 ESE 6 13 3 7 1016.7 1016.6 0.0
29/12:30pm 20.6 19.1 9.2 48 6.1 ESE 7 13 4 7 1017.1 1017.0 0.0
29/12:00pm 18.8 17.3 8.5 51 5.4 ESE 6 13 3 7 1017.2 1017.1 0.0
29/11:30am 18.9 16.9 8.6 51 5.4 E 9 15 5 8 1017.5 1017.4 0.0
29/11:00am 17.6 15.2 8.5 55 4.7 E 11 19 6 10 1017.9 1017.8 0.0
29/10:30am 17.1 15.6 9.0 59 4.3 E 7 15 4 8 1018.3 1018.2 0.0
29/10:00am 16.2 14.6 8.9 62 3.8 ESE 7 13 4 7 1018.8 1018.7 0.0
29/09:30am 15.1 13.5 8.8 66 3.3 ESE 7 15 4 8 1019.0 1019.0 0.0
29/09:00am 14.6 12.9 8.5 67 3.1 E 7 11 4 6 1019.3 1019.2 0.0
29/08:30am 13.5 11.9 8.6 72 2.5 SE 7 11 4 6 1019.4 1019.3 0.0
29/08:00am 12.5 10.9 8.8 78 1.9 SE 7 9 4 5 1019.3 1019.2 0.0
29/07:30am 11.4 11.0 9.7 89 0.9 SE 2 4 1 2 1019.3 1019.2 0.0
29/07:00am 9.8 9.3 9.3 97 0.3 SSE 2 4 1 2 1019.0 1019.0 0.0
29/06:30am 8.2 6.9 7.8 97 0.2 SE 4 4 2 2 1019.0 1019.0 0.0
29/06:00am 7.6 5.8 7.2 97 0.2 SSE 6 7 3 4 1018.9 1018.8 0.0
29/05:30am 7.9 6.2 7.5 97 0.2 SE 6 7 3 4 1018.8 1018.7 0.0
29/05:00am 8.1 6.4 7.7 97 0.2 SE 6 7 3 4 1018.8 1018.7 0.0
29/04:30am 7.5 5.5 6.9 96 0.3 SE 7 9 4 5 1018.7 1018.6 0.0
29/04:00am 8.3 6.6 7.7 96 0.3 SE 6 6 3 3 1018.9 1018.8 0.0
29/03:30am 8.7 8.2 7.9 95 0.4 CALM 0 0 0 0 1019.3 1019.2 0.0
29/03:00am 9.3 8.9 8.4 94 0.4 CALM 0 0 0 0 1019.3 1019.2 0.0
29/02:30am 9.7 9.4 8.8 94 0.4 CALM 0 0 0 0 1019.5 1019.4 0.0
29/02:00am 10.1 9.9 9.0 93 0.6 CALM 0 0 0 0 1019.6 1019.5 0.0
29/01:30am 10.4 10.1 8.8 90 0.8 CALM 0 0 0 0 1019.5 1019.4 0.0
29/01:00am 10.8 10.7 9.4 91 0.7 CALM 0 0 0 0 1019.8 1019.7 0.0
29/12:30am 10.8 10.7 9.6 92 0.6 CALM 0 2 0 1 1019.9 1019.8 0.0
29/12:00am 10.6 9.4 9.5 93 0.6 SE 6 7 3 4 1020.0 1019.9 0.0
 
Date/Time
EDT
Temp
°C
App
Temp
°C
Dew
Point
Rel
Hum
%
Delta-T
°C
Wind Press
QNH
hPa
Press
MSL
hPa
Rain
since 9 am
mm
Dir
 
Spd
km/h
Gust
km/h
Spd
kts
Gust
kts
28/11:30pm 9.9 8.2 8.5 91 0.7 SE 7 9 4 5 1019.9 1019.8 0.0
28/11:00pm 10.6 9.6 8.7 88 0.9 SSE 4 9 2 5 1020.0 1019.9 0.0
28/10:30pm 11.3 10.8 9.2 87 1.1 ESE 2 4 1 2 1020.0 1019.9 0.0
28/10:00pm 11.3 10.7 9.0 86 1.2 ESE 2 2 1 1 1019.9 1019.8 0.0
28/09:30pm 11.9 11.0 9.1 83 1.4 ENE 4 6 2 3 1019.8 1019.7 0.0
28/09:00pm 12.6 11.8 9.6 82 1.5 N 4 6 2 3 1019.7 1019.6 0.0
28/08:30pm 12.8 11.4 9.4 80 1.8 N 7 11 4 6 1019.7 1019.6 0.0
28/08:00pm 13.9 12.5 9.7 76 2.2 NNW 7 11 4 6 1019.7 1019.6 0.0
28/07:30pm 14.9 12.7 9.5 70 2.8 NNW 11 13 6 7 1019.6 1019.5 0.0
28/07:00pm 16.1 14.4 10.0 67 3.2 NNW 9 15 5 8 1019.4 1019.3 0.0
28/06:30pm 16.3 14.1 9.3 63 3.7 NNW 11 15 6 8 1019.2 1019.1 0.0
28/06:00pm 16.8 14.9 9.2 61 4.0 NNW 9 13 5 7 1019.3 1019.2 0.0
28/05:30pm 17.0 15.0 8.7 58 4.3 N 9 15 5 8 1019.3 1019.2 0.0
28/05:00pm 16.9 14.6 9.1 60 4.1 NNW 11 19 6 10 1019.5 1019.4 0.0
28/04:30pm 16.6 13.9 9.1 61 3.9 NNW 13 19 7 10 1019.5 1019.4 0.0
28/04:00pm 17.3 14.3 9.2 59 4.3 NNW 15 22 8 12 1019.5 1019.4 0.0
28/03:30pm 17.9 14.7 9.8 59 4.3 N 17 26 9 14 1019.7 1019.6 0.0
28/03:00pm 18.4 15.2 10.0 58 4.5 N 17 26 9 14 1019.9 1019.8 0.0
28/02:30pm 17.6 14.7 9.5 59 4.3 N 15 22 8 12 1020.0 1019.9 0.0
28/02:00pm 17.8 15.1 8.9 56 4.7 N 13 22 7 12 1020.3 1020.2 0.0
28/01:30pm 18.1 15.5 9.2 56 4.7 NNW 13 20 7 11 1020.7 1020.6 0.0
28/01:00pm 18.1 15.3 10.0 59 4.3 NNW 15 19 8 10 1020.9 1020.8 0.0
28/12:30pm 18.3 16.3 8.6 53 5.1 N 9 19 5 10 1021.0 1020.9 0.0
28/12:00pm 17.9 15.5 8.5 54 4.9 NNW 11 19 6 10 1021.3 1021.2 0.0
28/11:30am 16.9 14.9 6.4 50 5.2 N 6 11 3 6 1021.7 1021.6 0.0
28/11:00am 16.5 14.5 6.3 51 5.0 NNW 6 13 3 7 1021.7 1021.6 0.0
28/10:30am 15.9 13.7 7.7 58 4.2 NW 9 13 5 7 1021.9 1021.9 0.0
28/10:00am 14.5 12.5 7.1 61 3.7 NNW 7 11 4 6 1022.3 1022.3 0.0
28/09:30am 14.1 12.6 6.9 62 3.6 E 4 7 2 4 1022.7 1022.6 0.0
28/09:00am 12.5 11.9 7.2 70 2.6 CALM 0 4 0 2 1022.8 1022.7 0.0
28/08:30am 13.1 11.5 8.2 72 2.5 SE 6 9 3 5 1022.7 1022.6 0.0
28/08:00am 11.9 10.3 7.8 76 2.0 SE 6 7 3 4 1022.8 1022.7 0.0
28/07:30am 11.2 9.8 7.3 77 1.9 SSE 4 6 2 3 1022.7 1022.6 0.0
28/07:00am 9.6 8.6 7.2 85 1.1 SE 2 4 1 2 1022.5 1022.5 0.0
28/06:30am 8.9 8.2 6.9 87 0.9 CALM 0 4 0 2 1022.4 1022.4 0.0
28/06:00am 8.6 7.1 6.7 88 0.9 SE 4 6 2 3 1022.4 1022.4 0.0
28/05:30am 8.6 6.7 6.7 88 0.9 ESE 6 7 3 4 1022.4 1022.4 0.0
28/05:00am 8.8 7.0 7.1 89 0.8 SE 6 6 3 3 1022.2 1022.2 0.0
28/04:30am 8.7 7.2 6.7 87 0.9 ESE 4 4 2 2 1022.2 1022.2 0.0
28/04:00am 8.5 6.9 6.5 87 0.9 SSE 4 4 2 2 1022.3 1022.3 0.0
28/03:30am 8.6 7.0 6.4 86 1.0 SSE 4 6 2 3 1022.4 1022.4 0.0
28/03:00am 8.8 6.7 6.8 87 0.9 S 7 11 4 6 1022.5 1022.5 0.0
28/02:30am 7.5 6.1 5.6 88 0.9 SE 2 6 1 3 1022.9 1022.8 0.0
28/02:00am 8.3 6.5 5.4 82 1.3 SSW 4 9 2 5 1023.1 1023.0 0.0
28/01:30am 8.3 7.3 5.6 83 1.2 CALM 0 0 0 0 1023.0 1022.9 0.0
28/01:00am 8.3 6.6 5.8 84 1.1 W 4 6 2 3 1023.1 1023.0 0.0
28/12:30am 8.8 6.7 6.6 86 1.0 WNW 7 7 4 4 1023.3 1023.2 0.0
28/12:00am 9.2 7.4 7.0 86 1.0 WNW 6 7 3 4 1023.4 1023.3 0.0
 
Date/Time
EDT
Temp
°C
App
Temp
°C
Dew
Point
Rel
Hum
%
Delta-T
°C
Wind Press
QNH
hPa
Press
MSL
hPa
Rain
since 9 am
mm
Dir
 
Spd
km/h
Gust
km/h
Spd
kts
Gust
kts
27/11:30pm 9.3 7.4 6.7 84 1.2 NW 6 9 3 5 1023.4 1023.3 0.0
27/11:00pm 10.4 8.4 7.3 81 1.5 NNW 7 11 4 6 1023.2 1023.1 0.0
27/10:30pm 11.1 8.9 7.8 80 1.6 N 9 11 5 6 1023.1 1023.0 0.0
27/10:00pm 11.2 8.4 6.9 75 2.1 N 11 15 6 8 1022.9 1022.8 0.0
27/09:30pm 11.3 9.2 5.8 69 2.6 ENE 6 13 3 7 1022.3 1022.3 0.0
27/09:00pm 13.3 11.1 6.4 63 3.3 SW 7 9 4 5 1022.0 1022.0 0.0
27/08:30pm 15.0 13.6 5.5 53 4.6 WSW 2 4 1 2 1021.9 1021.9 0.0
27/08:00pm 15.9 14.4 5.2 49 5.1 E 2 6 1 3 1021.7 1021.6 0.0
27/07:30pm 16.3 14.1 6.4 52 4.9 E 7 11 4 6 1021.5 1021.4 0.0
27/07:00pm 17.3 14.3 6.2 48 5.5 ENE 11 17 6 9 1021.3 1021.2 0.0
27/06:30pm 18.6 16.3 5.5 42 6.5 NE 7 13 4 7 1021.0 1020.9 0.0
27/06:00pm 19.2 16.6 6.0 42 6.6 NNE 9 15 5 8 1020.9 1020.8 0.0
27/05:30pm 19.6 16.7 6.4 42 6.7 N 11 19 6 10 1021.0 1020.9 0.0
27/05:00pm 20.1 17.0 5.7 39 7.2 N 11 17 6 9 1021.0 1020.9 0.0
27/04:30pm 19.3 16.0 4.6 38 7.2 N 11 19 6 10 1021.1 1021.0 0.0
27/04:00pm 19.3 15.9 5.7 41 6.8 N 13 24 7 13 1021.2 1021.1 0.0
27/03:30pm 19.7 16.3 6.1 41 6.9 N 13 20 7 11 1021.4 1021.3 0.0
27/03:00pm 18.7 14.0 5.2 41 6.6 N 19 28 10 15 1021.5 1021.4 0.0
27/02:30pm 18.7 14.0 5.2 41 6.6 N 19 28 10 15 1021.6 1021.5 0.0
27/02:00pm 18.9 14.2 5.0 40 6.8 N 19 26 10 14 1021.7 1021.6 0.0
27/01:30pm 19.2 16.0 4.9 39 7.0 NNW 11 24 6 13 1021.9 1021.9 0.0
27/01:00pm 19.1 16.1 1.1 30 8.2 W 6 11 3 6 1021.9 1021.9 0.0
27/12:30pm 18.9 15.8 1.4 31 8.0 NNE 7 13 4 7 1022.0 1022.0 0.0
27/12:00pm 18.4 15.9 3.5 37 7.1 NE 6 9 3 5 1022.2 1022.2 0.0
27/11:30am 17.3 14.7 0.9 33 7.3 E 4 7 2 4 1022.5 1022.5 0.0
27/11:00am 16.1 12.9 0.7 35 6.7 WSW 7 13 4 7 1022.9 1022.8 0.0
27/10:30am 15.6 11.9 2.1 40 6.1 W 11 26 6 14 1023.1 1023.0 0.0
27/10:00am 14.5 10.8 2.4 44 5.4 W 11 20 6 11 1023.3 1023.2 0.0
27/09:30am 13.5 10.7 1.8 45 5.2 SSW 6 11 3 6 1023.6 1023.5 0.0
27/09:00am 12.0 8.3 2.5 52 4.2 SW 11 17 6 9 1023.6 1023.5 0.0
27/08:30am 11.1 7.7 1.6 52 4.1 W 9 15 5 8 1023.4 1023.3 0.0
27/08:00am 9.8 6.8 2.2 59 3.2 NNW 7 9 4 5 1023.2 1023.1 0.0
27/07:30am 8.0 5.1 1.6 64 2.7 WNW 6 7 3 4 1023.0 1022.9 0.0
27/07:00am 6.0 3.9 1.7 74 1.7 N 2 6 1 3 1022.7 1022.6 0.0
27/06:30am 5.6 3.7 0.8 71 1.9 CALM 0 2 0 1 1022.4 1022.4 0.0
27/06:00am 6.1 3.4 0.4 67 2.2 NNW 4 6 2 3 1022.1 1022.1 0.0
27/05:30am 6.4 3.7 0.5 66 2.4 WNW 4 9 2 5 1022.0 1022.0 0.0
27/05:00am 6.5 4.2 0.6 66 2.4 NW 2 7 1 4 1021.7 1021.6 0.0
27/04:30am 6.5 3.8 0.6 66 2.4 W 4 6 2 3 1021.6 1021.5 0.0
27/04:00am 6.8 4.5 0.3 63 2.6 W 2 6 1 3 1021.4 1021.3 0.0
27/03:30am 6.4 3.3 0.3 65 2.4 N 6 7 3 4 1021.4 1021.3 0.0
27/03:00am 7.2 4.5 0.4 62 2.7 W 4 15 2 8 1021.3 1021.2 0.0
27/02:30am 7.4 4.1 0.2 60 2.9 SSW 7 15 4 8 1021.2 1021.1 0.0
27/02:00am 7.3 3.0 1.0 64 2.6 W 13 20 7 11 1021.1 1021.0 0.0
27/01:30am 7.3 4.7 0.7 63 2.7 NW 4 6 2 3 1021.4 1021.3 0.0
27/01:00am 8.7 6.4 0.4 56 3.4 S 2 4 1 2 1021.2 1021.1 0.0
27/12:30am 8.4 6.2 0.9 59 3.1 SSW 2 7 1 4 1021.3 1021.2 0.0
27/12:00am 8.6 6.0 1.1 59 3.1 SSW 4 7 2 4 1021.3 1021.2 0.0
 
Date/Time
EDT
Temp
°C
App
Temp
°C
Dew
Point
Rel
Hum
%
Delta-T
°C
Wind Press
QNH
hPa
Press
MSL
hPa
Rain
since 9 am
mm
Dir
 
Spd
km/h
Gust
km/h
Spd
kts
Gust
kts
26/11:30pm 8.3 5.4 1.7 63 2.8 SSW 6 7 3 4 1021.0 1020.9 0.0
26/11:00pm 8.9 5.4 1.3 59 3.2 W 9 13 5 7 1020.9 1020.8 0.0
26/10:30pm 9.5 6.0 1.4 57 3.4 W 9 15 5 8 1020.8 1020.7 0.0
26/10:00pm 9.1 5.7 1.8 60 3.1 W 9 15 5 8 1020.7 1020.6 0.0
26/09:30pm 9.3 6.3 1.9 60 3.1 W 7 13 4 7 1020.3 1020.2 0.0
26/09:00pm 9.4 7.7 2.0 60 3.1 CALM 0 2 0 1 1020.0 1019.9 0.0
26/08:30pm 10.4 6.3 2.0 56 3.6 SW 13 20 7 11 1019.7 1019.6 0.0
26/08:00pm 11.6 6.3 1.8 51 4.2 WSW 19 30 10 16 1019.3 1019.2 0.0
26/07:30pm 12.6 8.1 2.2 49 4.6 WSW 15 22 8 12 1018.9 1018.8 0.0
26/07:00pm 13.5 8.7 2.4 47 4.9 SW 17 24 9 13 1018.4 1018.3 0.0
26/06:30pm 14.1 8.6 2.0 44 5.4 SSW 20 33 11 18 1017.9 1017.8 0.0
26/06:00pm 14.5 8.3 2.1 43 5.5 WSW 24 35 13 19 1017.6 1017.5 0.0
26/05:30pm 15.7 9.6 2.8 42 5.9 SW 24 35 13 19 1017.2 1017.1 0.0

Other Formats:

Comma delimited format used in spreadsheet applications
http://www.bom.gov.au/fwo/IDT60801/IDT60801.94955.axf

JavaScript Object Notation format (JSON) in row-major order
http://www.bom.gov.au/fwo/IDT60801/IDT60801.94955.json